sensor_id;sensor_type;location;lat;lon;timestamp;P1;durP1;ratioP1;P2;durP2;ratioP2
47958;SDS011;33718;50.910;-1.514;2022-12-18T00:01:58;10.18;;;6.90;;
47958;SDS011;33718;50.910;-1.514;2022-12-18T00:04:23;8.63;;;6.15;;
47958;SDS011;33718;50.910;-1.514;2022-12-18T00:06:55;11.25;;;6.82;;
47958;SDS011;33718;50.910;-1.514;2022-12-18T00:09:29;11.57;;;7.22;;
47958;SDS011;33718;50.910;-1.514;2022-12-18T00:11:54;8.17;;;5.83;;
47958;SDS011;33718;50.910;-1.514;2022-12-18T00:14:28;9.80;;;6.47;;
47958;SDS011;33718;50.910;-1.514;2022-12-18T00:16:56;10.48;;;6.25;;
47958;SDS011;33718;50.910;-1.514;2022-12-18T00:19:21;10.13;;;5.25;;
47958;SDS011;33718;50.910;-1.514;2022-12-18T00:21:47;4.47;;;3.22;;
47958;SDS011;33718;50.910;-1.514;2022-12-18T00:24:25;6.80;;;4.15;;
47958;SDS011;33718;50.910;-1.514;2022-12-18T00:26:37;7.90;;;4.70;;
47958;SDS011;33718;50.910;-1.514;2022-12-18T00:28:39;7.13;;;4.47;;
47958;SDS011;33718;50.910;-1.514;2022-12-18T00:30:46;4.55;;;3.10;;
47958;SDS011;33718;50.910;-1.514;2022-12-18T00:32:48;8.18;;;3.70;;
47958;SDS011;33718;50.910;-1.514;2022-12-18T00:34:50;4.50;;;3.42;;
47958;SDS011;33718;50.910;-1.514;2022-12-18T00:36:54;4.00;;;3.00;;
47958;SDS011;33718;50.910;-1.514;2022-12-18T00:39:03;4.75;;;3.63;;
47958;SDS011;33718;50.910;-1.514;2022-12-18T00:41:05;3.38;;;2.67;;
47958;SDS011;33718;50.910;-1.514;2022-12-18T00:43:07;4.28;;;3.15;;
47958;SDS011;33718;50.910;-1.514;2022-12-18T00:45:08;3.97;;;2.70;;
47958;SDS011;33718;50.910;-1.514;2022-12-18T00:47:13;7.45;;;4.50;;
47958;SDS011;33718;50.910;-1.514;2022-12-18T00:49:18;4.93;;;4.43;;
47958;SDS011;33718;50.910;-1.514;2022-12-18T00:51:26;4.57;;;4.05;;
47958;SDS011;33718;50.910;-1.514;2022-12-18T00:53:31;4.47;;;3.65;;
47958;SDS011;33718;50.910;-1.514;2022-12-18T00:55:39;5.90;;;3.47;;
47958;SDS011;33718;50.910;-1.514;2022-12-18T00:57:41;5.65;;;3.88;;
47958;SDS011;33718;50.910;-1.514;2022-12-18T00:59:43;6.55;;;3.75;;
47958;SDS011;33718;50.910;-1.514;2022-12-18T01:01:47;5.80;;;4.10;;
47958;SDS011;33718;50.910;-1.514;2022-12-18T01:03:57;4.70;;;3.53;;
47958;SDS011;33718;50.910;-1.514;2022-12-18T01:05:58;6.35;;;4.13;;
47958;SDS011;33718;50.910;-1.514;2022-12-18T01:08:03;3.53;;;3.00;;
47958;SDS011;33718;50.910;-1.514;2022-12-18T01:10:05;5.38;;;3.83;;
47958;SDS011;33718;50.910;-1.514;2022-12-18T01:12:07;4.03;;;2.65;;
47958;SDS011;33718;50.910;-1.514;2022-12-18T01:14:11;3.85;;;3.40;;
47958;SDS011;33718;50.910;-1.514;2022-12-18T01:16:19;4.05;;;3.17;;
47958;SDS011;33718;50.910;-1.514;2022-12-18T01:18:21;5.90;;;4.68;;
47958;SDS011;33718;50.910;-1.514;2022-12-18T01:22:26;5.75;;;4.07;;
47958;SDS011;33718;50.910;-1.514;2022-12-18T01:24:31;5.20;;;4.00;;
47958;SDS011;33718;50.910;-1.514;2022-12-18T01:26:38;5.70;;;3.85;;
47958;SDS011;33718;50.910;-1.514;2022-12-18T01:28:40;4.55;;;3.88;;
47958;SDS011;33718;50.910;-1.514;2022-12-18T01:30:44;6.18;;;4.55;;
47958;SDS011;33718;50.910;-1.514;2022-12-18T01:34:50;6.45;;;5.05;;
47958;SDS011;33718;50.910;-1.514;2022-12-18T01:36:52;9.88;;;7.20;;
47958;SDS011;33718;50.910;-1.514;2022-12-18T01:38:54;9.50;;;5.97;;
47958;SDS011;33718;50.910;-1.514;2022-12-18T01:40:59;12.85;;;8.15;;
47958;SDS011;33718;50.910;-1.514;2022-12-18T01:43:08;11.98;;;7.40;;
47958;SDS011;33718;50.910;-1.514;2022-12-18T01:45:24;9.82;;;7.32;;
47958;SDS011;33718;50.910;-1.514;2022-12-18T01:49:30;8.82;;;6.50;;
47958;SDS011;33718;50.910;-1.514;2022-12-18T01:51:32;9.32;;;6.80;;
47958;SDS011;33718;50.910;-1.514;2022-12-18T01:53:40;13.43;;;9.05;;
47958;SDS011;33718;50.910;-1.514;2022-12-18T01:55:52;11.70;;;8.02;;
47958;SDS011;33718;50.910;-1.514;2022-12-18T01:57:55;11.82;;;8.45;;
47958;SDS011;33718;50.910;-1.514;2022-12-18T02:00:11;9.25;;;7.30;;
47958;SDS011;33718;50.910;-1.514;2022-12-18T02:02:19;8.18;;;6.40;;
47958;SDS011;33718;50.910;-1.514;2022-12-18T02:04:23;9.50;;;7.30;;
47958;SDS011;33718;50.910;-1.514;2022-12-18T02:06:29;10.40;;;7.38;;
47958;SDS011;33718;50.910;-1.514;2022-12-18T02:17:13;12.32;;;7.25;;
47958;SDS011;33718;50.910;-1.514;2022-12-18T02:19:26;9.48;;;7.28;;
47958;SDS011;33718;50.910;-1.514;2022-12-18T02:28:13;9.80;;;6.60;;
47958;SDS011;33718;50.910;-1.514;2022-12-18T02:30:22;8.70;;;7.13;;
47958;SDS011;33718;50.910;-1.514;2022-12-18T02:32:25;8.52;;;6.78;;
47958;SDS011;33718;50.910;-1.514;2022-12-18T02:34:31;10.30;;;7.32;;
47958;SDS011;33718;50.910;-1.514;2022-12-18T02:36:40;12.57;;;8.23;;
47958;SDS011;33718;50.910;-1.514;2022-12-18T02:38:48;12.20;;;7.97;;
47958;SDS011;33718;50.910;-1.514;2022-12-18T02:40:57;12.70;;;8.48;;
47958;SDS011;33718;50.910;-1.514;2022-12-18T02:43:09;12.68;;;8.68;;
47958;SDS011;33718;50.910;-1.514;2022-12-18T02:45:17;11.15;;;8.45;;
47958;SDS011;33718;50.910;-1.514;2022-12-18T02:47:20;12.73;;;8.27;;
47958;SDS011;33718;50.910;-1.514;2022-12-18T02:52:01;13.20;;;8.60;;
47958;SDS011;33718;50.910;-1.514;2022-12-18T02:54:13;13.85;;;8.30;;
47958;SDS011;33718;50.910;-1.514;2022-12-18T02:56:21;12.63;;;8.45;;
47958;SDS011;33718;50.910;-1.514;2022-12-18T03:00:34;10.00;;;7.05;;
47958;SDS011;33718;50.910;-1.514;2022-12-18T03:02:59;11.88;;;7.70;;
47958;SDS011;33718;50.910;-1.514;2022-12-18T03:08:07;11.25;;;7.97;;
47958;SDS011;33718;50.910;-1.514;2022-12-18T03:10:29;14.60;;;9.80;;
47958;SDS011;33718;50.910;-1.514;2022-12-18T03:13:06;16.20;;;9.27;;
47958;SDS011;33718;50.910;-1.514;2022-12-18T03:15:37;14.35;;;9.80;;
47958;SDS011;33718;50.910;-1.514;2022-12-18T03:17:57;14.80;;;9.85;;
47958;SDS011;33718;50.910;-1.514;2022-12-18T03:20:17;16.60;;;11.60;;
47958;SDS011;33718;50.910;-1.514;2022-12-18T03:22:44;15.48;;;10.13;;
47958;SDS011;33718;50.910;-1.514;2022-12-18T03:25:13;13.30;;;9.02;;
47958;SDS011;33718;50.910;-1.514;2022-12-18T03:30:52;12.05;;;7.63;;
47958;SDS011;33718;50.910;-1.514;2022-12-18T03:33:09;13.63;;;8.38;;
47958;SDS011;33718;50.910;-1.514;2022-12-18T03:35:16;13.80;;;8.95;;
47958;SDS011;33718;50.910;-1.514;2022-12-18T03:37:23;13.38;;;8.73;;
47958;SDS011;33718;50.910;-1.514;2022-12-18T03:43:48;11.07;;;6.95;;
47958;SDS011;33718;50.910;-1.514;2022-12-18T03:46:02;13.02;;;7.82;;
47958;SDS011;33718;50.910;-1.514;2022-12-18T03:48:13;13.75;;;9.27;;
47958;SDS011;33718;50.910;-1.514;2022-12-18T03:50:49;10.30;;;7.68;;
47958;SDS011;33718;50.910;-1.514;2022-12-18T03:55:10;11.82;;;7.15;;
47958;SDS011;33718;50.910;-1.514;2022-12-18T03:57:19;11.73;;;7.78;;
47958;SDS011;33718;50.910;-1.514;2022-12-18T03:59:26;12.30;;;8.00;;
47958;SDS011;33718;50.910;-1.514;2022-12-18T04:01:33;8.48;;;6.32;;
47958;SDS011;33718;50.910;-1.514;2022-12-18T04:03:44;7.57;;;5.18;;
47958;SDS011;33718;50.910;-1.514;2022-12-18T04:05:56;9.23;;;5.72;;
47958;SDS011;33718;50.910;-1.514;2022-12-18T04:08:02;9.30;;;5.53;;
47958;SDS011;33718;50.910;-1.514;2022-12-18T04:10:07;7.30;;;5.57;;
47958;SDS011;33718;50.910;-1.514;2022-12-18T04:12:16;9.65;;;5.57;;
47958;SDS011;33718;50.910;-1.514;2022-12-18T04:16:28;9.90;;;6.93;;
47958;SDS011;33718;50.910;-1.514;2022-12-18T04:18:29;7.53;;;5.93;;
47958;SDS011;33718;50.910;-1.514;2022-12-18T04:20:31;9.18;;;5.90;;
47958;SDS011;33718;50.910;-1.514;2022-12-18T04:22:33;7.15;;;5.22;;
47958;SDS011;33718;50.910;-1.514;2022-12-18T04:24:34;8.30;;;5.85;;
47958;SDS011;33718;50.910;-1.514;2022-12-18T04:26:36;7.53;;;5.47;;
47958;SDS011;33718;50.910;-1.514;2022-12-18T04:28:37;10.10;;;7.50;;
47958;SDS011;33718;50.910;-1.514;2022-12-18T04:30:45;13.10;;;7.70;;
47958;SDS011;33718;50.910;-1.514;2022-12-18T04:32:50;11.63;;;7.25;;
47958;SDS011;33718;50.910;-1.514;2022-12-18T04:34:55;14.63;;;8.38;;
47958;SDS011;33718;50.910;-1.514;2022-12-18T04:36:57;12.18;;;7.55;;
47958;SDS011;33718;50.910;-1.514;2022-12-18T04:38:58;19.67;;;10.10;;
47958;SDS011;33718;50.910;-1.514;2022-12-18T04:41:00;12.57;;;8.20;;
47958;SDS011;33718;50.910;-1.514;2022-12-18T04:43:08;12.30;;;7.35;;
47958;SDS011;33718;50.910;-1.514;2022-12-18T04:45:10;9.43;;;7.07;;
47958;SDS011;33718;50.910;-1.514;2022-12-18T04:47:17;11.55;;;7.82;;
47958;SDS011;33718;50.910;-1.514;2022-12-18T04:49:19;8.93;;;6.30;;
47958;SDS011;33718;50.910;-1.514;2022-12-18T04:51:21;11.02;;;7.20;;
47958;SDS011;33718;50.910;-1.514;2022-12-18T04:53:27;8.52;;;6.10;;
47958;SDS011;33718;50.910;-1.514;2022-12-18T04:55:28;8.57;;;6.05;;
47958;SDS011;33718;50.910;-1.514;2022-12-18T04:57:30;9.30;;;5.68;;
47958;SDS011;33718;50.910;-1.514;2022-12-18T05:01:41;19.48;;;10.38;;
47958;SDS011;33718;50.910;-1.514;2022-12-18T05:03:50;14.77;;;8.80;;
47958;SDS011;33718;50.910;-1.514;2022-12-18T05:05:52;11.40;;;8.45;;
47958;SDS011;33718;50.910;-1.514;2022-12-18T05:07:59;11.55;;;8.35;;
47958;SDS011;33718;50.910;-1.514;2022-12-18T05:10:01;17.58;;;10.23;;
47958;SDS011;33718;50.910;-1.514;2022-12-18T05:12:09;17.02;;;11.23;;
47958;SDS011;33718;50.910;-1.514;2022-12-18T05:14:11;18.30;;;10.30;;
47958;SDS011;33718;50.910;-1.514;2022-12-18T05:16:18;16.33;;;11.13;;
47958;SDS011;33718;50.910;-1.514;2022-12-18T05:18:26;14.90;;;10.35;;
47958;SDS011;33718;50.910;-1.514;2022-12-18T05:20:33;18.05;;;11.40;;
47958;SDS011;33718;50.910;-1.514;2022-12-18T05:22:35;14.80;;;11.25;;
47958;SDS011;33718;50.910;-1.514;2022-12-18T05:24:39;21.60;;;13.65;;
47958;SDS011;33718;50.910;-1.514;2022-12-18T05:26:40;16.45;;;11.75;;
47958;SDS011;33718;50.910;-1.514;2022-12-18T05:28:42;20.45;;;12.35;;
47958;SDS011;33718;50.910;-1.514;2022-12-18T05:30:50;18.17;;;12.38;;
47958;SDS011;33718;50.910;-1.514;2022-12-18T05:32:58;20.27;;;12.65;;
47958;SDS011;33718;50.910;-1.514;2022-12-18T05:34:59;17.85;;;10.90;;
47958;SDS011;33718;50.910;-1.514;2022-12-18T05:37:01;19.05;;;11.93;;
47958;SDS011;33718;50.910;-1.514;2022-12-18T05:39:09;17.88;;;11.43;;
47958;SDS011;33718;50.910;-1.514;2022-12-18T05:41:10;16.60;;;11.48;;
47958;SDS011;33718;50.910;-1.514;2022-12-18T05:43:12;15.95;;;10.43;;
47958;SDS011;33718;50.910;-1.514;2022-12-18T05:45:21;19.50;;;12.68;;
47958;SDS011;33718;50.910;-1.514;2022-12-18T05:47:22;18.42;;;11.65;;
47958;SDS011;33718;50.910;-1.514;2022-12-18T05:49:30;20.27;;;12.52;;
47958;SDS011;33718;50.910;-1.514;2022-12-18T05:51:37;17.58;;;12.63;;
47958;SDS011;33718;50.910;-1.514;2022-12-18T05:53:40;15.80;;;11.80;;
47958;SDS011;33718;50.910;-1.514;2022-12-18T05:55:45;18.88;;;12.52;;
47958;SDS011;33718;50.910;-1.514;2022-12-18T05:57:49;19.33;;;12.70;;
47958;SDS011;33718;50.910;-1.514;2022-12-18T06:02:01;15.88;;;12.23;;
47958;SDS011;33718;50.910;-1.514;2022-12-18T06:04:09;18.42;;;11.45;;
47958;SDS011;33718;50.910;-1.514;2022-12-18T06:06:22;17.17;;;10.77;;
47958;SDS011;33718;50.910;-1.514;2022-12-18T06:08:50;21.38;;;11.88;;
47958;SDS011;33718;50.910;-1.514;2022-12-18T06:11:15;13.10;;;9.82;;
47958;SDS011;33718;50.910;-1.514;2022-12-18T06:13:35;17.73;;;10.82;;
47958;SDS011;33718;50.910;-1.514;2022-12-18T06:15:56;16.35;;;10.15;;
47958;SDS011;33718;50.910;-1.514;2022-12-18T06:18:08;16.13;;;10.48;;
47958;SDS011;33718;50.910;-1.514;2022-12-18T06:20:28;18.50;;;10.60;;
47958;SDS011;33718;50.910;-1.514;2022-12-18T06:22:50;17.10;;;10.52;;
47958;SDS011;33718;50.910;-1.514;2022-12-18T06:25:16;14.18;;;9.18;;
47958;SDS011;33718;50.910;-1.514;2022-12-18T06:27:32;13.35;;;9.15;;
47958;SDS011;33718;50.910;-1.514;2022-12-18T06:29:56;14.00;;;9.32;;
47958;SDS011;33718;50.910;-1.514;2022-12-18T06:32:14;14.27;;;9.43;;
47958;SDS011;33718;50.910;-1.514;2022-12-18T06:34:49;14.98;;;9.27;;
47958;SDS011;33718;50.910;-1.514;2022-12-18T06:37:09;16.63;;;9.88;;
47958;SDS011;33718;50.910;-1.514;2022-12-18T06:39:18;14.80;;;8.70;;
47958;SDS011;33718;50.910;-1.514;2022-12-18T06:41:41;13.82;;;9.30;;
47958;SDS011;33718;50.910;-1.514;2022-12-18T06:44:06;11.52;;;7.90;;
47958;SDS011;33718;50.910;-1.514;2022-12-18T06:46:11;12.18;;;7.72;;
47958;SDS011;33718;50.910;-1.514;2022-12-18T06:48:13;11.02;;;8.35;;
47958;SDS011;33718;50.910;-1.514;2022-12-18T06:50:20;13.07;;;9.07;;
47958;SDS011;33718;50.910;-1.514;2022-12-18T06:52:27;11.57;;;7.38;;
47958;SDS011;33718;50.910;-1.514;2022-12-18T06:54:29;11.50;;;7.35;;
47958;SDS011;33718;50.910;-1.514;2022-12-18T06:56:36;12.73;;;7.88;;
47958;SDS011;33718;50.910;-1.514;2022-12-18T06:58:44;12.20;;;7.75;;
47958;SDS011;33718;50.910;-1.514;2022-12-18T07:00:45;11.68;;;7.85;;
47958;SDS011;33718;50.910;-1.514;2022-12-18T07:02:53;13.57;;;8.68;;
47958;SDS011;33718;50.910;-1.514;2022-12-18T07:05:01;15.60;;;9.40;;
47958;SDS011;33718;50.910;-1.514;2022-12-18T07:07:11;11.82;;;8.18;;
47958;SDS011;33718;50.910;-1.514;2022-12-18T07:09:12;14.20;;;8.02;;
47958;SDS011;33718;50.910;-1.514;2022-12-18T07:11:14;11.20;;;7.72;;
47958;SDS011;33718;50.910;-1.514;2022-12-18T07:13:15;10.93;;;7.85;;
47958;SDS011;33718;50.910;-1.514;2022-12-18T07:15:20;13.10;;;9.38;;
47958;SDS011;33718;50.910;-1.514;2022-12-18T07:17:21;16.98;;;8.52;;
47958;SDS011;33718;50.910;-1.514;2022-12-18T07:19:23;13.00;;;8.02;;
47958;SDS011;33718;50.910;-1.514;2022-12-18T07:21:24;12.63;;;8.75;;
47958;SDS011;33718;50.910;-1.514;2022-12-18T07:23:29;12.63;;;9.07;;
47958;SDS011;33718;50.910;-1.514;2022-12-18T07:25:34;14.73;;;9.75;;
47958;SDS011;33718;50.910;-1.514;2022-12-18T07:27:39;16.55;;;10.52;;
47958;SDS011;33718;50.910;-1.514;2022-12-18T07:29:46;17.98;;;10.45;;
47958;SDS011;33718;50.910;-1.514;2022-12-18T07:31:54;13.45;;;10.02;;
47958;SDS011;33718;50.910;-1.514;2022-12-18T07:33:56;15.73;;;9.50;;
47958;SDS011;33718;50.910;-1.514;2022-12-18T07:36:04;14.25;;;9.45;;
47958;SDS011;33718;50.910;-1.514;2022-12-18T07:38:06;14.27;;;8.40;;
47958;SDS011;33718;50.910;-1.514;2022-12-18T07:40:13;15.55;;;9.95;;
47958;SDS011;33718;50.910;-1.514;2022-12-18T07:42:15;11.43;;;8.63;;
47958;SDS011;33718;50.910;-1.514;2022-12-18T07:44:31;12.15;;;8.75;;
47958;SDS011;33718;50.910;-1.514;2022-12-18T07:46:33;13.48;;;8.88;;
47958;SDS011;33718;50.910;-1.514;2022-12-18T07:48:41;13.52;;;8.43;;
47958;SDS011;33718;50.910;-1.514;2022-12-18T07:50:50;12.30;;;7.63;;
47958;SDS011;33718;50.910;-1.514;2022-12-18T07:52:57;12.07;;;8.90;;
47958;SDS011;33718;50.910;-1.514;2022-12-18T07:55:05;12.20;;;8.25;;
47958;SDS011;33718;50.910;-1.514;2022-12-18T07:57:10;10.75;;;7.50;;
47958;SDS011;33718;50.910;-1.514;2022-12-18T07:59:38;13.38;;;8.55;;
47958;SDS011;33718;50.910;-1.514;2022-12-18T08:01:40;10.00;;;7.47;;
47958;SDS011;33718;50.910;-1.514;2022-12-18T08:03:45;11.30;;;7.38;;
47958;SDS011;33718;50.910;-1.514;2022-12-18T08:05:57;11.73;;;8.52;;
47958;SDS011;33718;50.910;-1.514;2022-12-18T08:07:59;16.65;;;9.70;;
47958;SDS011;33718;50.910;-1.514;2022-12-18T08:10:01;17.58;;;10.68;;
47958;SDS011;33718;50.910;-1.514;2022-12-18T08:12:10;16.10;;;9.68;;
47958;SDS011;33718;50.910;-1.514;2022-12-18T08:14:12;11.55;;;8.13;;
47958;SDS011;33718;50.910;-1.514;2022-12-18T08:16:14;12.25;;;8.52;;
47958;SDS011;33718;50.910;-1.514;2022-12-18T08:18:15;14.48;;;8.02;;
47958;SDS011;33718;50.910;-1.514;2022-12-18T08:20:23;10.77;;;8.65;;
47958;SDS011;33718;50.910;-1.514;2022-12-18T08:22:30;10.77;;;6.78;;
47958;SDS011;33718;50.910;-1.514;2022-12-18T08:24:34;13.73;;;9.00;;
47958;SDS011;33718;50.910;-1.514;2022-12-18T08:26:42;13.90;;;9.32;;
47958;SDS011;33718;50.910;-1.514;2022-12-18T08:29:03;14.05;;;9.05;;
47958;SDS011;33718;50.910;-1.514;2022-12-18T08:31:06;15.48;;;9.70;;
47958;SDS011;33718;50.910;-1.514;2022-12-18T08:33:13;13.60;;;9.23;;
47958;SDS011;33718;50.910;-1.514;2022-12-18T08:35:21;12.80;;;9.02;;
47958;SDS011;33718;50.910;-1.514;2022-12-18T08:39:33;10.82;;;8.35;;
47958;SDS011;33718;50.910;-1.514;2022-12-18T08:41:41;8.80;;;7.18;;
47958;SDS011;33718;50.910;-1.514;2022-12-18T08:43:43;14.52;;;8.93;;
47958;SDS011;33718;50.910;-1.514;2022-12-18T08:46:10;14.05;;;9.13;;
47958;SDS011;33718;50.910;-1.514;2022-12-18T08:48:15;10.38;;;7.70;;
47958;SDS011;33718;50.910;-1.514;2022-12-18T08:50:22;12.73;;;9.15;;
47958;SDS011;33718;50.910;-1.514;2022-12-18T08:52:24;9.25;;;6.85;;
47958;SDS011;33718;50.910;-1.514;2022-12-18T08:54:25;13.40;;;8.02;;
47958;SDS011;33718;50.910;-1.514;2022-12-18T08:56:27;12.02;;;6.18;;
47958;SDS011;33718;50.910;-1.514;2022-12-18T08:58:29;11.35;;;7.57;;
47958;SDS011;33718;50.910;-1.514;2022-12-18T09:00:33;8.98;;;6.85;;
47958;SDS011;33718;50.910;-1.514;2022-12-18T09:02:37;9.93;;;7.75;;
47958;SDS011;33718;50.910;-1.514;2022-12-18T09:04:39;7.82;;;6.10;;
47958;SDS011;33718;50.910;-1.514;2022-12-18T09:06:44;7.97;;;5.80;;
47958;SDS011;33718;50.910;-1.514;2022-12-18T09:08:52;7.38;;;6.22;;
47958;SDS011;33718;50.910;-1.514;2022-12-18T09:10:59;9.65;;;6.20;;
47958;SDS011;33718;50.910;-1.514;2022-12-18T09:13:04;9.23;;;7.07;;
47958;SDS011;33718;50.910;-1.514;2022-12-18T09:15:17;10.90;;;7.28;;
47958;SDS011;33718;50.910;-1.514;2022-12-18T09:17:35;11.35;;;8.18;;
47958;SDS011;33718;50.910;-1.514;2022-12-18T09:19:49;10.05;;;8.05;;
47958;SDS011;33718;50.910;-1.514;2022-12-18T09:22:03;11.93;;;7.82;;
47958;SDS011;33718;50.910;-1.514;2022-12-18T09:24:23;11.25;;;8.43;;
47958;SDS011;33718;50.910;-1.514;2022-12-18T09:26:33;13.90;;;8.95;;
47958;SDS011;33718;50.910;-1.514;2022-12-18T09:28:46;12.15;;;8.73;;
47958;SDS011;33718;50.910;-1.514;2022-12-18T09:30:57;12.82;;;8.02;;
47958;SDS011;33718;50.910;-1.514;2022-12-18T09:33:15;16.33;;;9.25;;
47958;SDS011;33718;50.910;-1.514;2022-12-18T09:35:30;20.95;;;9.98;;
47958;SDS011;33718;50.910;-1.514;2022-12-18T09:37:45;11.88;;;8.75;;
47958;SDS011;33718;50.910;-1.514;2022-12-18T09:40:02;13.48;;;8.68;;
47958;SDS011;33718;50.910;-1.514;2022-12-18T09:42:36;15.43;;;10.98;;
47958;SDS011;33718;50.910;-1.514;2022-12-18T09:44:54;12.00;;;9.30;;
47958;SDS011;33718;50.910;-1.514;2022-12-18T09:47:19;13.70;;;9.48;;
47958;SDS011;33718;50.910;-1.514;2022-12-18T09:49:45;14.90;;;10.52;;
47958;SDS011;33718;50.910;-1.514;2022-12-18T09:52:59;16.02;;;10.18;;
47958;SDS011;33718;50.910;-1.514;2022-12-18T09:54:36;12.77;;;8.52;;
47958;SDS011;33718;50.910;-1.514;2022-12-18T09:56:43;11.95;;;8.93;;
47958;SDS011;33718;50.910;-1.514;2022-12-18T09:58:48;14.73;;;9.27;;
47958;SDS011;33718;50.910;-1.514;2022-12-18T10:01:01;12.27;;;9.02;;
47958;SDS011;33718;50.910;-1.514;2022-12-18T10:03:09;14.05;;;9.77;;
47958;SDS011;33718;50.910;-1.514;2022-12-18T10:05:29;15.00;;;11.00;;
47958;SDS011;33718;50.910;-1.514;2022-12-18T10:09:48;18.08;;;11.95;;
47958;SDS011;33718;50.910;-1.514;2022-12-18T10:16:42;23.83;;;14.25;;
47958;SDS011;33718;50.910;-1.514;2022-12-18T10:20:52;16.98;;;13.23;;
47958;SDS011;33718;50.910;-1.514;2022-12-18T10:24:02;23.17;;;14.85;;
47958;SDS011;33718;50.910;-1.514;2022-12-18T10:27:42;20.33;;;13.75;;
47958;SDS011;33718;50.910;-1.514;2022-12-18T10:29:50;18.88;;;13.45;;
47958;SDS011;33718;50.910;-1.514;2022-12-18T10:31:52;18.85;;;13.45;;
47958;SDS011;33718;50.910;-1.514;2022-12-18T10:33:54;21.63;;;14.27;;
47958;SDS011;33718;50.910;-1.514;2022-12-18T10:36:02;21.15;;;13.90;;
47958;SDS011;33718;50.910;-1.514;2022-12-18T10:40:15;20.42;;;13.75;;
47958;SDS011;33718;50.910;-1.514;2022-12-18T10:42:26;18.27;;;13.88;;
47958;SDS011;33718;50.910;-1.514;2022-12-18T10:46:35;20.13;;;13.32;;
47958;SDS011;33718;50.910;-1.514;2022-12-18T10:50:51;16.30;;;12.85;;
47958;SDS011;33718;50.910;-1.514;2022-12-18T10:53:21;20.95;;;14.18;;
47958;SDS011;33718;50.910;-1.514;2022-12-18T10:55:30;19.08;;;13.15;;
47958;SDS011;33718;50.910;-1.514;2022-12-18T10:57:35;16.67;;;11.75;;
47958;SDS011;33718;50.910;-1.514;2022-12-18T11:01:55;18.70;;;13.23;;
47958;SDS011;33718;50.910;-1.514;2022-12-18T11:04:04;24.27;;;14.23;;
47958;SDS011;33718;50.910;-1.514;2022-12-18T11:06:11;22.50;;;14.30;;
47958;SDS011;33718;50.910;-1.514;2022-12-18T11:08:20;20.55;;;14.20;;
47958;SDS011;33718;50.910;-1.514;2022-12-18T11:10:32;18.08;;;13.65;;
47958;SDS011;33718;50.910;-1.514;2022-12-18T11:12:41;21.10;;;13.13;;
47958;SDS011;33718;50.910;-1.514;2022-12-18T11:14:48;20.10;;;12.70;;
47958;SDS011;33718;50.910;-1.514;2022-12-18T11:16:51;16.27;;;11.80;;
47958;SDS011;33718;50.910;-1.514;2022-12-18T11:19:32;15.93;;;11.82;;
47958;SDS011;33718;50.910;-1.514;2022-12-18T11:21:40;14.65;;;11.90;;
47958;SDS011;33718;50.910;-1.514;2022-12-18T11:23:49;16.70;;;11.68;;
47958;SDS011;33718;50.910;-1.514;2022-12-18T11:25:59;19.73;;;12.05;;
47958;SDS011;33718;50.910;-1.514;2022-12-18T11:28:04;16.35;;;11.63;;
47958;SDS011;33718;50.910;-1.514;2022-12-18T11:32:37;16.92;;;11.65;;
47958;SDS011;33718;50.910;-1.514;2022-12-18T11:34:41;22.55;;;13.38;;
47958;SDS011;33718;50.910;-1.514;2022-12-18T11:36:46;15.18;;;10.55;;
47958;SDS011;33718;50.910;-1.514;2022-12-18T11:38:50;15.73;;;12.38;;
47958;SDS011;33718;50.910;-1.514;2022-12-18T11:41:11;17.95;;;12.95;;
47958;SDS011;33718;50.910;-1.514;2022-12-18T11:43:27;18.05;;;13.90;;
47958;SDS011;33718;50.910;-1.514;2022-12-18T11:45:47;16.05;;;12.25;;
47958;SDS011;33718;50.910;-1.514;2022-12-18T11:48:36;16.30;;;12.05;;
47958;SDS011;33718;50.910;-1.514;2022-12-18T11:50:21;17.67;;;12.43;;
47958;SDS011;33718;50.910;-1.514;2022-12-18T11:52:39;14.52;;;11.60;;
47958;SDS011;33718;50.910;-1.514;2022-12-18T11:54:48;17.02;;;13.13;;
47958;SDS011;33718;50.910;-1.514;2022-12-18T11:59:15;16.58;;;13.45;;
47958;SDS011;33718;50.910;-1.514;2022-12-18T12:01:34;17.08;;;13.32;;
47958;SDS011;33718;50.910;-1.514;2022-12-18T12:03:55;18.30;;;12.70;;
47958;SDS011;33718;50.910;-1.514;2022-12-18T12:12:52;17.15;;;13.18;;
47958;SDS011;33718;50.910;-1.514;2022-12-18T12:17:17;14.63;;;11.57;;
47958;SDS011;33718;50.910;-1.514;2022-12-18T12:19:32;19.42;;;12.27;;
47958;SDS011;33718;50.910;-1.514;2022-12-18T12:21:40;15.15;;;10.98;;
47958;SDS011;33718;50.910;-1.514;2022-12-18T12:29:00;17.13;;;9.75;;
47958;SDS011;33718;50.910;-1.514;2022-12-18T12:33:46;13.48;;;8.00;;
47958;SDS011;33718;50.910;-1.514;2022-12-18T12:40:22;11.35;;;7.68;;
47958;SDS011;33718;50.910;-1.514;2022-12-18T12:42:58;9.93;;;6.90;;
47958;SDS011;33718;50.910;-1.514;2022-12-18T12:45:38;8.60;;;6.97;;
47958;SDS011;33718;50.910;-1.514;2022-12-18T12:47:47;7.10;;;6.35;;
47958;SDS011;33718;50.910;-1.514;2022-12-18T12:49:52;7.88;;;6.07;;
47958;SDS011;33718;50.910;-1.514;2022-12-18T12:52:00;6.97;;;6.22;;
47958;SDS011;33718;50.910;-1.514;2022-12-18T12:54:21;7.72;;;5.93;;
47958;SDS011;33718;50.910;-1.514;2022-12-18T12:56:35;6.38;;;5.35;;
47958;SDS011;33718;50.910;-1.514;2022-12-18T12:59:06;7.47;;;6.03;;
47958;SDS011;33718;50.910;-1.514;2022-12-18T13:05:46;6.95;;;6.03;;
47958;SDS011;33718;50.910;-1.514;2022-12-18T13:07:58;10.10;;;7.10;;
47958;SDS011;33718;50.910;-1.514;2022-12-18T13:12:25;7.45;;;6.20;;
47958;SDS011;33718;50.910;-1.514;2022-12-18T13:14:46;9.20;;;5.53;;
47958;SDS011;33718;50.910;-1.514;2022-12-18T13:16:48;8.38;;;5.88;;
47958;SDS011;33718;50.910;-1.514;2022-12-18T13:18:54;8.60;;;5.65;;
47958;SDS011;33718;50.910;-1.514;2022-12-18T13:21:08;6.95;;;4.93;;
47958;SDS011;33718;50.910;-1.514;2022-12-18T13:25:32;6.10;;;4.15;;
47958;SDS011;33718;50.910;-1.514;2022-12-18T13:29:52;4.70;;;4.25;;
47958;SDS011;33718;50.910;-1.514;2022-12-18T13:31:58;4.65;;;3.92;;
47958;SDS011;33718;50.910;-1.514;2022-12-18T13:36:31;4.07;;;3.47;;
47958;SDS011;33718;50.910;-1.514;2022-12-18T13:38:36;6.50;;;4.32;;
47958;SDS011;33718;50.910;-1.514;2022-12-18T13:42:43;3.92;;;3.50;;
47958;SDS011;33718;50.910;-1.514;2022-12-18T13:45:34;5.70;;;3.63;;
47958;SDS011;33718;50.910;-1.514;2022-12-18T13:47:39;4.07;;;3.55;;
47958;SDS011;33718;50.910;-1.514;2022-12-18T13:49:46;4.65;;;3.38;;
47958;SDS011;33718;50.910;-1.514;2022-12-18T13:51:49;5.18;;;3.42;;
47958;SDS011;33718;50.910;-1.514;2022-12-18T13:56:04;4.57;;;3.63;;
47958;SDS011;33718;50.910;-1.514;2022-12-18T13:58:11;3.70;;;3.38;;
47958;SDS011;33718;50.910;-1.514;2022-12-18T14:00:23;4.82;;;3.40;;
47958;SDS011;33718;50.910;-1.514;2022-12-18T14:02:28;5.53;;;3.55;;
47958;SDS011;33718;50.910;-1.514;2022-12-18T14:04:31;5.38;;;2.75;;
47958;SDS011;33718;50.910;-1.514;2022-12-18T14:06:36;3.58;;;2.80;;
47958;SDS011;33718;50.910;-1.514;2022-12-18T14:08:41;2.65;;;2.22;;
47958;SDS011;33718;50.910;-1.514;2022-12-18T14:10:50;3.03;;;2.35;;
47958;SDS011;33718;50.910;-1.514;2022-12-18T14:13:02;3.53;;;2.55;;
47958;SDS011;33718;50.910;-1.514;2022-12-18T14:17:30;6.18;;;2.53;;
47958;SDS011;33718;50.910;-1.514;2022-12-18T14:19:32;2.47;;;1.60;;
47958;SDS011;33718;50.910;-1.514;2022-12-18T14:21:38;3.08;;;2.40;;
47958;SDS011;33718;50.910;-1.514;2022-12-18T14:23:43;3.35;;;1.95;;
47958;SDS011;33718;50.910;-1.514;2022-12-18T14:25:48;1.98;;;1.77;;
47958;SDS011;33718;50.910;-1.514;2022-12-18T14:28:04;2.30;;;1.98;;
47958;SDS011;33718;50.910;-1.514;2022-12-18T14:32:28;2.65;;;2.08;;
47958;SDS011;33718;50.910;-1.514;2022-12-18T14:34:32;2.20;;;2.00;;
47958;SDS011;33718;50.910;-1.514;2022-12-18T14:36:36;4.72;;;1.75;;